Time;durP1;ratioP1;P1;durP2;ratioP2;P2;SDS_P1;SDS_P2;PMS_P1;PMS_P2;Temp;Humidity;BMP_temperature;BMP_pressure;BME280_temperature;BME280_humidity;BME280_pressure;Samples;Min_cycle;Max_cycle;Signal;HPM_P1;HPM_P2
2023/05/16 00:00:19;;;;;;;5.10;4.60;;;12.20;99.90;;;;;;5075388;28;20232;-60
2023/05/16 00:02:46;;;;;;;6.60;5.00;;;12.10;99.90;;;;;;5075422;28;20278;-60
2023/05/16 00:05:15;;;;;;;6.23;4.93;;;12.10;99.90;;;;;;5075117;28;20209;-59
2023/05/16 00:07:43;;;;;;;5.30;4.80;;;12.10;99.90;;;;;;5075027;28;20284;-59
2023/05/16 00:10:11;;;;;;;4.57;4.17;;;12.00;99.90;;;;;;5074845;28;20215;-59
2023/05/16 00:12:39;;;;;;;5.37;4.80;;;12.10;99.90;;;;;;5074509;28;20235;-60
2023/05/16 00:15:09;;;;;;;7.00;5.10;;;12.00;99.90;;;;;;5074988;28;20207;-59
2023/05/16 00:17:36;;;;;;;5.37;4.87;;;12.00;99.90;;;;;;5074526;28;20272;-59
2023/05/16 00:20:09;;;;;;;5.27;4.43;;;12.00;99.90;;;;;;5074826;28;20292;-58
2023/05/16 00:22:38;;;;;;;5.30;4.70;;;12.00;99.90;;;;;;5074534;28;20716;-60
2023/05/16 00:25:06;;;;;;;5.03;4.53;;;12.00;99.90;;;;;;5074455;28;20301;-59
2023/05/16 00:27:34;;;;;;;7.20;5.13;;;12.00;99.90;;;;;;5074763;28;20241;-60
2023/05/16 00:30:01;;;;;;;6.10;4.73;;;12.10;99.90;;;;;;5074909;28;20777;-60
2023/05/16 00:32:28;;;;;;;5.00;4.50;;;12.00;99.90;;;;;;5074381;28;20278;-60
2023/05/16 00:34:55;;;;;;;5.40;4.50;;;12.00;99.90;;;;;;5074541;28;20211;-60
2023/05/16 00:37:22;;;;;;;5.30;4.60;;;12.00;99.90;;;;;;5074081;28;20223;-60
2023/05/16 00:39:50;;;;;;;5.03;4.47;;;11.80;99.90;;;;;;5074359;28;20205;-60
2023/05/16 00:42:19;;;;;;;4.53;4.13;;;11.70;99.90;;;;;;5074016;28;20225;-60
2023/05/16 00:44:46;;;;;;;4.63;4.23;;;11.60;99.90;;;;;;5074418;28;20212;-59
2023/05/16 00:47:13;;;;;;;6.03;5.13;;;11.40;99.90;;;;;;5074142;28;20619;-60
2023/05/16 00:49:41;;;;;;;5.10;4.50;;;11.40;99.90;;;;;;5074177;28;20244;-59
2023/05/16 00:52:08;;;;;;;5.77;4.87;;;11.30;99.90;;;;;;5073748;28;20709;-60
2023/05/16 00:54:35;;;;;;;5.17;4.57;;;11.30;99.90;;;;;;5072687;28;20211;-60
2023/05/16 00:57:05;;;;;;;7.30;5.63;;;11.30;99.90;;;;;;5073770;28;20723;-58
2023/05/16 00:59:33;;;;;;;4.87;4.40;;;11.30;99.90;;;;;;5074132;28;20231;-60
2023/05/16 01:02:00;;;;;;;8.50;5.30;;;11.30;99.90;;;;;;5073813;28;20641;-60
2023/05/16 01:04:29;;;;;;;5.70;5.20;;;11.40;99.90;;;;;;5073808;28;20230;-59
2023/05/16 01:06:56;;;;;;;6.23;5.30;;;11.40;99.90;;;;;;5073704;28;20209;-60
2023/05/16 01:09:23;;;;;;;5.87;5.20;;;11.50;99.90;;;;;;5073627;28;20642;-60
2023/05/16 01:11:55;;;;;;;5.37;4.87;;;11.50;99.90;;;;;;5073636;28;20324;-60
2023/05/16 01:14:29;;;;;;;5.63;5.07;;;11.30;99.90;;;;;;5073565;28;20217;-60
2023/05/16 01:17:05;;;;;;;6.37;5.47;;;11.50;99.90;;;;;;5073392;28;20255;-60
2023/05/16 01:19:47;;;;;;;5.90;4.97;;;11.50;99.90;;;;;;5073334;28;20668;-59
2023/05/16 01:22:20;;;;;;;5.17;4.67;;;11.50;99.90;;;;;;5073597;28;20311;-60
2023/05/16 01:25:05;;;;;;;5.63;5.10;;;11.50;99.90;;;;;;5073506;28;20262;-60
2023/05/16 01:27:35;;;;;;;5.43;4.80;;;11.40;99.90;;;;;;5073543;28;20204;-60
2023/05/16 01:30:14;;;;;;;4.90;4.40;;;11.40;99.90;;;;;;5073373;28;20664;-60
2023/05/16 01:32:40;;;;;;;5.93;4.83;;;11.30;99.90;;;;;;5073382;28;20228;-60
2023/05/16 01:35:10;;;;;;;5.07;4.57;;;11.30;99.90;;;;;;5073702;28;20205;-59
2023/05/16 01:37:42;;;;;;;5.87;5.20;;;11.30;99.90;;;;;;5073317;28;20221;-59
2023/05/16 01:40:15;;;;;;;6.00;5.17;;;11.20;99.90;;;;;;5073311;28;20785;-60
2023/05/16 01:42:47;;;;;;;4.73;4.23;;;11.20;99.90;;;;;;5073444;28;20257;-60
2023/05/16 01:45:20;;;;;;;9.80;4.80;;;11.20;99.90;;;;;;5073737;28;20287;-60
2023/05/16 01:47:53;;;;;;;6.03;5.20;;;11.20;99.90;;;;;;5073353;28;20211;-60
2023/05/16 01:50:25;;;;;;;5.77;5.10;;;11.20;99.90;;;;;;5073685;28;20211;-59
2023/05/16 01:52:57;;;;;;;6.87;5.60;;;11.30;99.90;;;;;;5073286;28;20237;-59
2023/05/16 01:55:35;;;;;;;7.63;6.23;;;11.30;99.90;;;;;;5073156;28;20205;-58
2023/05/16 01:58:05;;;;;;;6.90;5.40;;;11.30;99.90;;;;;;5073250;28;20224;-60
2023/05/16 02:00:32;;;;;;;8.00;5.53;;;11.30;99.90;;;;;;5073439;28;20315;-60
2023/05/16 02:02:58;;;;;;;6.73;4.97;;;11.30;99.90;;;;;;5072677;28;20225;-60
2023/05/16 02:05:26;;;;;;;6.33;5.70;;;11.30;99.90;;;;;;5072659;28;20255;-60
2023/05/16 02:07:53;;;;;;;6.27;5.50;;;11.30;99.90;;;;;;5072870;28;20665;-60
2023/05/16 02:10:20;;;;;;;6.33;5.47;;;11.30;99.90;;;;;;5072883;28;20665;-60
2023/05/16 02:12:47;;;;;;;5.97;5.07;;;11.30;99.90;;;;;;5072417;28;20221;-60
2023/05/16 02:15:15;;;;;;;5.33;4.83;;;11.30;99.90;;;;;;5072634;28;20205;-59
2023/05/16 02:17:42;;;;;;;5.93;5.33;;;11.20;99.90;;;;;;5072225;28;20757;-60
2023/05/16 02:20:10;;;;;;;6.20;5.60;;;11.20;99.90;;;;;;5072346;28;20603;-58
2023/05/16 02:22:38;;;;;;;5.83;5.27;;;11.20;99.90;;;;;;5072371;28;20228;-59
2023/05/16 02:25:06;;;;;;;6.50;5.90;;;11.20;99.90;;;;;;5072531;28;20251;-59
2023/05/16 02:27:33;;;;;;;6.77;5.53;;;11.20;99.90;;;;;;5072648;28;20704;-59
2023/05/16 02:30:00;;;;;;;6.30;5.50;;;11.20;99.90;;;;;;5072926;28;20694;-59
2023/05/16 02:32:28;;;;;;;5.67;5.07;;;11.10;99.90;;;;;;5071968;28;20263;-58
2023/05/16 02:34:55;;;;;;;5.70;5.10;;;11.00;99.90;;;;;;5072441;28;20292;-59
2023/05/16 02:37:22;;;;;;;5.90;4.90;;;10.90;99.90;;;;;;5072219;28;20782;-59
2023/05/16 02:39:49;;;;;;;5.63;5.00;;;10.70;99.90;;;;;;5072514;28;20204;-58
2023/05/16 02:42:16;;;;;;;5.47;4.97;;;10.60;99.90;;;;;;5072277;28;20256;-60
2023/05/16 02:44:42;;;;;;;6.50;5.73;;;10.50;99.90;;;;;;5072052;28;20244;-59
2023/05/16 02:47:09;;;;;;;6.30;5.40;;;10.40;99.90;;;;;;5072486;28;20201;-58
2023/05/16 02:49:38;;;;;;;7.93;5.13;;;10.50;99.90;;;;;;5072564;28;20209;-59
2023/05/16 02:52:06;;;;;;;6.10;5.50;;;10.50;99.90;;;;;;5072319;28;20740;-59
2023/05/16 02:54:33;;;;;;;6.17;5.53;;;10.60;99.90;;;;;;5072137;28;20728;-58
2023/05/16 02:57:00;;;;;;;5.67;5.13;;;10.60;99.90;;;;;;5072243;28;20303;-59
2023/05/16 02:59:27;;;;;;;6.50;5.53;;;10.60;99.90;;;;;;5072171;28;20258;-59
2023/05/16 03:01:54;;;;;;;8.43;5.90;;;10.80;99.90;;;;;;5072387;28;20282;-58
2023/05/16 03:04:21;;;;;;;6.50;5.87;;;10.90;99.90;;;;;;5072375;28;20205;-58
2023/05/16 03:06:50;;;;;;;7.00;6.30;;;11.00;99.90;;;;;;5072098;28;20244;-59
2023/05/16 03:09:18;;;;;;;6.30;5.50;;;11.10;99.90;;;;;;5072282;28;20208;-59
2023/05/16 03:11:45;;;;;;;7.43;6.07;;;11.10;99.90;;;;;;5072216;28;20238;-59
2023/05/16 03:14:12;;;;;;;8.13;5.83;;;11.20;99.90;;;;;;5072234;28;20205;-58
2023/05/16 03:16:40;;;;;;;8.97;6.10;;;11.20;99.90;;;;;;5072733;28;20287;-59
2023/05/16 03:19:07;;;;;;;6.63;6.03;;;11.30;99.90;;;;;;5075087;28;20221;-59
2023/05/16 03:21:34;;;;;;;7.27;5.63;;;11.30;99.90;;;;;;5076194;28;20224;-58
2023/05/16 03:24:02;;;;;;;6.70;5.97;;;11.30;99.90;;;;;;5076188;28;20215;-59
2023/05/16 03:26:30;;;;;;;6.43;5.70;;;11.40;99.90;;;;;;5076419;28;20208;-59
2023/05/16 03:28:56;;;;;;;6.17;5.57;;;11.40;99.90;;;;;;5076633;28;20255;-58
2023/05/16 03:31:23;;;;;;;7.53;5.93;;;11.40;99.90;;;;;;5076727;28;20248;-60
2023/05/16 03:33:50;;;;;;;6.73;5.77;;;11.50;99.90;;;;;;5076846;28;20209;-59
2023/05/16 03:36:17;;;;;;;8.20;5.40;;;11.50;99.90;;;;;;5077316;28;20220;-59
2023/05/16 03:38:44;;;;;;;8.03;5.97;;;11.50;99.90;;;;;;5077886;28;20221;-58
2023/05/16 03:41:13;;;;;;;8.43;5.90;;;11.50;99.90;;;;;;5078147;28;20270;-61
2023/05/16 03:43:40;;;;;;;6.77;6.03;;;11.50;99.90;;;;;;5077855;28;20224;-60
2023/05/16 03:46:07;;;;;;;6.77;6.13;;;11.50;99.90;;;;;;5077989;28;20205;-59
2023/05/16 03:48:33;;;;;;;7.97;5.83;;;11.60;99.90;;;;;;5078488;28;20232;-60
2023/05/16 03:51:00;;;;;;;7.90;6.13;;;11.60;99.90;;;;;;5078920;28;20209;-58
2023/05/16 03:53:27;;;;;;;8.93;6.83;;;11.70;99.90;;;;;;5078780;28;20278;-59
2023/05/16 03:55:54;;;;;;;9.10;6.40;;;11.70;99.90;;;;;;5078758;28;20207;-60
2023/05/16 03:58:22;;;;;;;8.93;6.63;;;11.70;99.90;;;;;;5079358;28;20221;-60
2023/05/16 04:00:49;;;;;;;7.97;6.10;;;11.80;99.90;;;;;;5078466;28;20209;-59
2023/05/16 04:03:16;;;;;;;8.47;6.77;;;11.80;99.90;;;;;;5078205;28;20292;-59
2023/05/16 04:05:43;;;;;;;8.03;7.23;;;12.00;99.90;;;;;;5078510;28;20219;-59
2023/05/16 04:08:10;;;;;;;7.40;6.63;;;12.00;99.90;;;;;;5079775;28;20592;-60
2023/05/16 04:10:37;;;;;;;7.57;6.83;;;12.00;99.90;;;;;;5080580;28;20250;-59
2023/05/16 04:13:04;;;;;;;7.73;6.93;;;12.10;99.90;;;;;;5079250;28;20225;-59
2023/05/16 04:15:33;;;;;;;8.10;7.27;;;12.20;99.90;;;;;;5079256;28;20209;-58
2023/05/16 04:18:00;;;;;;;9.73;7.23;;;12.30;99.90;;;;;;5079525;28;20288;-58
2023/05/16 04:20:26;;;;;;;10.60;8.53;;;12.40;99.90;;;;;;5079243;28;20240;-59
2023/05/16 04:22:53;;;;;;;11.57;10.07;;;12.50;99.90;;;;;;5078409;28;20228;-59
2023/05/16 04:25:20;;;;;;;19.93;16.27;;;12.60;99.90;;;;;;5078685;28;20250;-60
2023/05/16 04:27:47;;;;;;;16.90;13.43;;;12.80;99.90;;;;;;5078249;28;20203;-58
2023/05/16 04:30:14;;;;;;;16.03;13.40;;;13.00;99.90;;;;;;5078801;28;20227;-60
2023/05/16 04:32:43;;;;;;;16.07;13.47;;;13.10;99.90;;;;;;5077273;28;20256;-59
2023/05/16 04:35:10;;;;;;;22.53;14.87;;;13.20;99.90;;;;;;5078669;28;20211;-62
2023/05/16 04:37:37;;;;;;;21.93;16.30;;;13.40;99.90;;;;;;5077855;28;20213;-60
2023/05/16 04:40:06;;;;;;;19.80;16.13;;;13.50;99.90;;;;;;5077865;28;20292;-59
2023/05/16 04:42:33;;;;;;;18.93;16.17;;;13.60;99.90;;;;;;5077506;28;20236;-60
2023/05/16 04:45:02;;;;;;;18.70;16.20;;;13.80;99.90;;;;;;5076663;28;20299;-59
2023/05/16 04:47:30;;;;;;;18.87;16.50;;;13.90;99.90;;;;;;5077072;28;20703;-59
2023/05/16 04:49:58;;;;;;;18.17;16.00;;;14.00;99.90;;;;;;5077386;28;20256;-59
2023/05/16 04:52:25;;;;;;;17.33;15.37;;;14.10;99.90;;;;;;5076534;28;20620;-59
2023/05/16 04:54:52;;;;;;;20.73;16.17;;;14.20;99.90;;;;;;5077227;28;20208;-58
2023/05/16 04:57:19;;;;;;;18.47;15.57;;;14.30;99.90;;;;;;5076542;28;20209;-59
2023/05/16 04:59:46;;;;;;;19.10;15.37;;;14.40;99.90;;;;;;5076146;28;20236;-59
2023/05/16 05:02:12;;;;;;;17.50;14.33;;;14.50;99.90;;;;;;5075338;28;20233;-59
2023/05/16 05:04:39;;;;;;;18.70;15.50;;;14.60;99.90;;;;;;5075116;28;20209;-59
2023/05/16 05:07:08;;;;;;;18.90;15.33;;;14.70;99.90;;;;;;5075303;28;20369;-59
2023/05/16 05:09:35;;;;;;;18.77;16.17;;;14.80;99.90;;;;;;5075353;28;20283;-59
2023/05/16 05:12:02;;;;;;;18.13;15.87;;;14.80;99.90;;;;;;5075665;28;20235;-60
2023/05/16 05:14:29;;;;;;;17.67;15.23;;;14.90;99.90;;;;;;5075143;28;20696;-59
2023/05/16 05:16:55;;;;;;;18.87;16.60;;;15.00;99.90;;;;;;5075558;28;20263;-59
2023/05/16 05:19:22;;;;;;;18.03;16.10;;;15.00;99.90;;;;;;5075181;28;20225;-59
2023/05/16 05:21:49;;;;;;;20.50;17.13;;;15.10;99.90;;;;;;5075042;28;20708;-59
2023/05/16 05:24:18;;;;;;;18.03;15.67;;;15.30;99.90;;;;;;5074853;28;20205;-59
2023/05/16 05:26:45;;;;;;;21.13;16.43;;;15.20;99.90;;;;;;5074250;28;20673;-59
2023/05/16 05:29:11;;;;;;;17.03;15.10;;;15.40;99.90;;;;;;5074733;28;20205;-59
2023/05/16 05:31:38;;;;;;;19.33;15.53;;;15.50;99.90;;;;;;5074422;28;20244;-59
2023/05/16 05:34:06;;;;;;;16.87;15.07;;;15.60;99.90;;;;;;5074422;28;20577;-59
2023/05/16 05:36:33;;;;;;;17.43;15.63;;;15.70;99.90;;;;;;5074143;28;20205;-59
2023/05/16 05:39:00;;;;;;;18.10;15.07;;;15.80;99.90;;;;;;5074213;28;20307;-59
2023/05/16 05:41:28;;;;;;;20.23;16.50;;;15.70;99.90;;;;;;5073839;28;20688;-59
2023/05/16 05:43:55;;;;;;;17.43;15.50;;;15.70;99.90;;;;;;5074354;28;20212;-60
2023/05/16 05:46:22;;;;;;;17.17;14.87;;;15.70;99.90;;;;;;5073877;28;20209;-58
2023/05/16 05:48:49;;;;;;;17.37;15.30;;;15.60;99.90;;;;;;5073638;28;20229;-58
2023/05/16 05:51:16;;;;;;;19.40;15.13;;;15.50;99.90;;;;;;5074038;28;20732;-62
2023/05/16 05:53:44;;;;;;;16.53;13.73;;;15.30;99.90;;;;;;5075966;28;20312;-59
2023/05/16 05:56:11;;;;;;;16.47;13.87;;;15.00;99.90;;;;;;5076168;28;20696;-59
2023/05/16 05:58:40;;;;;;;19.10;14.27;;;14.80;99.90;;;;;;5075833;28;20312;-59
2023/05/16 06:01:07;;;;;;;17.73;13.83;;;14.50;99.90;;;;;;5076189;28;20574;-59
2023/05/16 06:03:34;;;;;;;20.13;14.53;;;14.20;99.90;;;;;;5076316;28;20237;-58
2023/05/16 06:06:01;;;;;;;18.07;15.07;;;14.10;99.90;;;;;;5076057;28;20209;-64
2023/05/16 06:08:28;;;;;;;19.10;15.00;;;14.20;99.90;;;;;;5077873;28;20258;-59
2023/05/16 06:10:55;;;;;;;17.03;13.77;;;14.20;99.90;;;;;;5077464;28;20209;-57
2023/05/16 06:13:22;;;;;;;18.17;13.80;;;14.40;99.90;;;;;;5074422;28;20288;-59
2023/05/16 06:15:52;;;;;;;16.17;14.30;;;14.40;99.90;;;;;;5075038;28;20291;-59
2023/05/16 06:18:19;;;;;;;15.90;13.87;;;14.70;99.90;;;;;;5074807;28;20231;-58
2023/05/16 06:20:46;;;;;;;17.43;13.97;;;15.10;99.90;;;;;;5073951;28;20239;-66
2023/05/16 06:23:13;;;;;;;20.03;14.63;;;15.40;99.90;;;;;;5074157;28;20239;-58
2023/05/16 06:25:40;;;;;;;18.90;14.17;;;15.70;99.90;;;;;;5073033;28;20292;-58
2023/05/16 06:28:07;;;;;;;18.07;13.30;;;16.00;99.90;;;;;;5074302;28;20205;-58
2023/05/16 06:30:34;;;;;;;15.30;13.57;;;16.00;99.90;;;;;;5074009;28;20209;-58
2023/05/16 06:33:02;;;;;;;17.40;13.53;;;16.00;99.90;;;;;;5073618;28;20229;-58
2023/05/16 06:35:29;;;;;;;15.63;13.70;;;16.00;99.90;;;;;;5073449;28;20262;-58
2023/05/16 06:37:56;;;;;;;16.20;13.40;;;16.00;99.90;;;;;;5073891;28;20266;-59
2023/05/16 06:40:23;;;;;;;14.98;12.48;;;16.10;99.90;;;;;;5073417;28;20604;-59
2023/05/16 06:42:50;;;;;;;15.93;12.77;;;15.90;99.90;;;;;;5072753;28;20235;-58
2023/05/16 06:45:17;;;;;;;17.37;13.63;;;15.50;99.90;;;;;;5073243;28;20694;-59
2023/05/16 06:47:44;;;;;;;14.93;12.40;;;15.40;99.90;;;;;;5073393;28;20204;-58
2023/05/16 06:50:13;;;;;;;14.47;12.47;;;15.10;99.90;;;;;;5072946;28;20212;-58
2023/05/16 06:52:40;;;;;;;18.07;13.47;;;15.20;99.90;;;;;;5074541;28;20233;-60
2023/05/16 06:55:08;;;;;;;15.33;11.87;;;15.40;99.90;;;;;;5076607;28;20658;-58
2023/05/16 06:57:35;;;;;;;13.07;11.60;;;15.40;99.90;;;;;;5076746;28;20219;-58
2023/05/16 07:00:02;;;;;;;20.27;11.73;;;15.40;99.90;;;;;;5076944;28;20718;-58
2023/05/16 07:02:28;;;;;;;11.70;10.23;;;15.20;99.90;;;;;;5077172;28;20232;-58
2023/05/16 07:04:55;;;;;;;12.43;10.47;;;15.00;99.90;;;;;;5076533;28;20209;-58
2023/05/16 07:07:23;;;;;;;12.73;11.07;;;15.00;99.90;;;;;;5076784;28;20291;-58
2023/05/16 07:09:50;;;;;;;11.63;10.17;;;15.00;99.90;;;;;;5076825;28;20684;-59
2023/05/16 07:12:17;;;;;;;13.93;10.85;;;14.90;99.90;;;;;;5076758;28;20317;-58
2023/05/16 07:14:45;;;;;;;10.70;9.60;;;14.80;99.90;;;;;;5076798;28;20550;-58
2023/05/16 07:17:12;;;;;;;12.83;11.10;;;14.80;99.90;;;;;;5076704;28;20224;-58
2023/05/16 07:19:39;;;;;;;11.77;10.37;;;14.80;99.90;;;;;;5076835;28;20225;-58
2023/05/16 07:22:06;;;;;;;13.13;9.80;;;14.90;99.90;;;;;;5076631;28;20229;-58
2023/05/16 07:24:35;;;;;;;16.57;9.87;;;15.10;99.90;;;;;;5076611;28;20288;-58
2023/05/16 07:27:01;;;;;;;12.47;9.63;;;15.40;99.90;;;;;;5076587;28;20719;-58
2023/05/16 07:29:29;;;;;;;10.87;9.40;;;15.60;99.90;;;;;;5076485;28;20211;-58
2023/05/16 07:31:56;;;;;;;10.90;9.60;;;15.60;99.90;;;;;;5076093;28;20225;-58
2023/05/16 07:34:22;;;;;;;10.97;9.03;;;15.60;99.90;;;;;;5076088;28;20696;-59
2023/05/16 07:36:49;;;;;;;11.00;8.87;;;15.60;99.90;;;;;;5076685;28;20576;-58
2023/05/16 07:39:16;;;;;;;10.77;9.57;;;15.60;99.90;;;;;;5076237;28;20256;-58
2023/05/16 07:41:44;;;;;;;10.43;9.27;;;15.70;99.90;;;;;;5075790;28;20232;-58
2023/05/16 07:44:11;;;;;;;10.53;8.43;;;15.70;99.90;;;;;;5076736;28;20211;-62
2023/05/16 07:46:38;;;;;;;10.43;7.95;;;16.00;99.90;;;;;;5077386;28;20258;-62
2023/05/16 07:49:05;;;;;;;9.52;8.52;;;16.10;99.90;;;;;;5077283;28;20286;-60
2023/05/16 07:51:32;;;;;;;11.15;9.93;;;16.30;99.90;;;;;;5076448;28;20220;-61
2023/05/16 07:53:58;;;;;;;10.32;8.57;;;16.40;99.90;;;;;;5116019;22;20346;-65
2023/05/16 07:56:25;;;;;;;10.02;8.05;;;16.50;99.90;;;;;;5094840;28;20625;-65
2023/05/16 07:58:53;;;;;;;10.05;7.53;;;16.40;99.90;;;;;;5094461;28;20297;-65
2023/05/16 08:01:20;;;;;;;15.18;11.82;;;16.30;99.90;;;;;;5094271;28;20212;-65
2023/05/16 08:03:47;;;;;;;12.20;9.10;;;16.40;99.90;;;;;;5093631;28;20232;-65
2023/05/16 08:06:14;;;;;;;10.40;8.90;;;16.40;99.90;;;;;;5094501;28;20208;-65
2023/05/16 08:08:41;;;;;;;9.70;8.52;;;16.40;99.90;;;;;;5094401;28;20204;-65
2023/05/16 08:11:08;;;;;;;11.25;8.40;;;16.30;99.90;;;;;;5094462;28;20204;-66
2023/05/16 08:13:34;;;;;;;12.67;8.40;;;16.30;99.90;;;;;;5093936;28;20224;-65
2023/05/16 08:16:02;;;;;;;9.57;8.50;;;16.40;99.90;;;;;;5094178;28;20694;-65
2023/05/16 08:18:29;;;;;;;12.70;8.77;;;16.40;99.90;;;;;;5093972;28;20208;-66
2023/05/16 08:20:56;;;;;;;11.38;7.75;;;16.30;99.90;;;;;;5093875;28;20231;-66
2023/05/16 08:23:22;;;;;;;9.65;7.70;;;16.30;99.90;;;;;;5093792;28;20249;-65
2023/05/16 08:25:49;;;;;;;9.73;8.02;;;16.30;99.90;;;;;;5093953;28;20204;-65
2023/05/16 08:28:16;;;;;;;10.57;8.07;;;16.30;99.90;;;;;;5094295;28;20204;-65
2023/05/16 08:30:43;;;;;;;10.77;8.43;;;16.10;99.90;;;;;;5093923;28;20291;-66
2023/05/16 08:33:11;;;;;;;15.13;10.50;;;16.00;99.90;;;;;;5093599;28;20635;-65
2023/05/16 08:35:37;;;;;;;11.45;8.60;;;16.00;99.90;;;;;;5094121;28;20631;-64
2023/05/16 08:38:04;;;;;;;10.23;9.13;;;15.90;99.90;;;;;;5093744;28;20204;-66
2023/05/16 08:40:31;;;;;;;17.77;13.73;;;15.80;99.90;;;;;;5093746;28;20243;-65
2023/05/16 08:42:58;;;;;;;11.07;9.20;;;15.60;99.90;;;;;;5093866;28;20337;-64
2023/05/16 08:45:25;;;;;;;10.40;9.17;;;15.40;99.90;;;;;;5093309;28;20200;-65
2023/05/16 08:47:55;;;;;;;11.37;9.13;;;15.50;99.90;;;;;;5093723;28;20211;-64
2023/05/16 08:50:24;;;;;;;12.57;9.90;;;15.50;99.90;;;;;;5094129;28;20234;-65
2023/05/16 08:52:52;;;;;;;10.27;9.03;;;15.70;99.90;;;;;;5092844;28;20301;-65
2023/05/16 08:55:20;;;;;;;9.97;8.53;;;15.80;99.90;;;;;;5093150;28;20669;-66
2023/05/16 08:57:49;;;;;;;9.90;8.60;;;15.70;99.90;;;;;;5093141;28;20295;-67
2023/05/16 09:00:18;;;;;;;12.53;9.10;;;15.60;99.90;;;;;;5093108;28;20786;-65
2023/05/16 09:02:45;;;;;;;12.30;9.40;;;15.60;99.90;;;;;;5093415;28;20608;-65
2023/05/16 09:05:13;;;;;;;10.30;9.20;;;15.60;99.90;;;;;;5093322;28;20226;-65
2023/05/16 09:07:41;;;;;;;9.80;8.80;;;15.50;99.90;;;;;;5093399;28;20220;-65
2023/05/16 09:10:09;;;;;;;12.50;9.27;;;15.40;99.90;;;;;;5093381;28;20200;-64
2023/05/16 09:12:36;;;;;;;16.63;10.17;;;15.50;99.90;;;;;;5093059;28;20755;-66
2023/05/16 09:15:05;;;;;;;12.47;9.33;;;15.40;99.90;;;;;;5092619;28;20212;-66
2023/05/16 09:17:36;;;;;;;11.77;10.30;;;15.30;99.90;;;;;;5092708;28;20215;-66
2023/05/16 09:20:09;;;;;;;14.27;10.07;;;15.40;99.90;;;;;;5092842;28;20220;-65
2023/05/16 09:22:36;;;;;;;11.80;9.90;;;15.50;99.90;;;;;;5092737;28;20231;-65
2023/05/16 09:25:04;;;;;;;12.07;10.53;;;15.60;99.90;;;;;;5092450;28;20638;-65
2023/05/16 09:27:31;;;;;;;12.83;10.30;;;15.80;99.90;;;;;;5092936;28;20211;-66
2023/05/16 09:29:59;;;;;;;12.18;10.52;;;16.00;99.90;;;;;;5092821;28;20209;-66
2023/05/16 09:32:26;;;;;;;15.60;10.90;;;16.10;99.90;;;;;;5092843;28;20220;-66
2023/05/16 09:34:57;;;;;;;13.77;10.52;;;16.20;99.90;;;;;;5092407;28;20225;-66
2023/05/16 09:37:24;;;;;;;12.93;11.57;;;16.50;99.90;;;;;;5092562;28;20204;-66
2023/05/16 09:39:52;;;;;;;12.23;10.93;;;16.80;99.90;;;;;;5092651;28;20228;-66
2023/05/16 09:42:21;;;;;;;11.88;10.68;;;17.00;99.90;;;;;;5092715;28;20310;-66
2023/05/16 09:44:49;;;;;;;14.23;11.40;;;17.20;99.90;;;;;;5092460;28;20299;-66
2023/05/16 09:47:17;;;;;;;13.60;11.93;;;17.30;99.90;;;;;;5092789;28;20204;-64
2023/05/16 09:49:45;;;;;;;14.13;11.75;;;17.20;99.90;;;;;;5092351;28;20205;-64
2023/05/16 09:52:12;;;;;;;17.17;13.17;;;16.70;99.90;;;;;;5091828;28;20235;-64
2023/05/16 09:54:40;;;;;;;15.98;13.25;;;16.30;99.90;;;;;;5092119;28;20580;-63
2023/05/16 09:57:07;;;;;;;15.68;12.98;;;16.00;99.90;;;;;;5092392;28;20239;-64
2023/05/16 09:59:37;;;;;;;16.63;13.27;;;15.80;99.90;;;;;;5092246;28;20231;-63
2023/05/16 10:02:06;;;;;;;15.17;13.17;;;15.70;99.90;;;;;;5092546;28;20253;-63
2023/05/16 10:04:33;;;;;;;15.90;13.23;;;15.60;99.90;;;;;;5092244;28;20204;-65
2023/05/16 10:07:03;;;;;;;15.10;13.50;;;15.60;99.90;;;;;;5093089;28;20588;-64
2023/05/16 10:09:31;;;;;;;15.50;12.43;;;15.70;99.90;;;;;;5092265;28;20204;-64
2023/05/16 10:12:01;;;;;;;16.13;12.63;;;15.70;99.90;;;;;;5092199;28;20204;-63
2023/05/16 10:14:30;;;;;;;17.53;13.30;;;15.90;99.90;;;;;;5091950;28;20204;-64
2023/05/16 10:16:59;;;;;;;15.73;13.37;;;15.90;99.90;;;;;;5091733;28;20204;-64
2023/05/16 10:19:26;;;;;;;14.77;13.03;;;15.90;99.90;;;;;;5092106;28;20510;-64
2023/05/16 10:21:58;;;;;;;17.33;13.60;;;15.90;99.90;;;;;;5091968;28;20729;-67
2023/05/16 10:24:31;;;;;;;17.50;13.37;;;16.10;99.90;;;;;;5092234;28;20659;-66
2023/05/16 10:26:58;;;;;;;18.90;13.80;;;16.20;99.90;;;;;;5092635;28;20650;-67
2023/05/16 10:29:25;;;;;;;17.00;13.63;;;16.10;99.90;;;;;;5092179;28;20568;-64
2023/05/16 10:31:53;;;;;;;18.23;13.90;;;16.00;99.90;;;;;;5092346;28;20196;-65
2023/05/16 10:34:21;;;;;;;16.47;12.93;;;15.80;99.90;;;;;;5091567;28;20212;-64
2023/05/16 10:36:49;;;;;;;19.80;14.37;;;15.90;99.90;;;;;;5091814;28;20208;-63
2023/05/16 10:39:16;;;;;;;14.27;12.67;;;15.90;99.90;;;;;;5092042;28;20205;-65
2023/05/16 10:41:43;;;;;;;15.63;12.60;;;15.90;99.90;;;;;;5091938;28;20605;-65
2023/05/16 10:44:14;;;;;;;14.93;12.70;;;16.10;99.90;;;;;;5092218;28;20457;-65
2023/05/16 10:46:41;;;;;;;15.57;13.02;;;16.40;99.90;;;;;;5092297;28;20216;-65
2023/05/16 10:49:23;;;;;;;16.05;12.13;;;16.50;99.90;;;;;;5091554;28;20651;-66
2023/05/16 10:52:04;;;;;;;16.75;13.05;;;16.80;99.90;;;;;;5091099;28;20211;-65
2023/05/16 10:54:35;;;;;;;15.95;11.93;;;17.30;99.90;;;;;;5091449;28;20265;-65
2023/05/16 10:57:08;;;;;;;13.18;11.38;;;17.90;99.90;;;;;;5091487;28;20671;-65
2023/05/16 10:59:43;;;;;;;12.48;11.18;;;18.10;99.90;;;;;;5091651;28;20200;-65
2023/05/16 11:02:24;;;;;;;15.10;12.63;;;18.00;99.90;;;;;;5095395;28;20626;-66
2023/05/16 11:04:54;;;;;;;13.75;10.90;;;17.70;99.90;;;;;;5111342;28;20215;-63
2023/05/16 11:07:23;;;;;;;13.07;10.68;;;17.60;99.90;;;;;;5112076;28;20211;-63
2023/05/16 11:10:05;;;;;;;14.40;11.30;;;17.40;99.90;;;;;;5111999;28;20232;-63
2023/05/16 11:12:44;;;;;;;13.77;11.32;;;17.20;99.90;;;;;;5111641;28;20239;-64
2023/05/16 11:15:22;;;;;;;12.65;11.35;;;17.30;99.90;;;;;;5111358;28;20243;-65
2023/05/16 11:17:49;;;;;;;14.80;11.52;;;17.20;99.90;;;;;;5111663;28;20690;-66
2023/05/16 11:20:36;;;;;;;13.98;10.93;;;17.40;99.90;;;;;;5111291;28;20307;-63
2023/05/16 11:23:19;;;;;;;13.88;10.25;;;17.60;99.90;;;;;;5111749;28;20246;-64
2023/05/16 11:25:48;;;;;;;12.30;10.27;;;17.70;99.90;;;;;;5108510;28;20199;-63
2023/05/16 11:28:14;;;;;;;14.55;11.05;;;17.70;99.90;;;;;;5111991;28;20199;-64
2023/05/16 11:30:43;;;;;;;13.65;11.43;;;17.60;99.90;;;;;;5111693;28;20702;-64
2023/05/16 11:33:09;;;;;;;12.52;10.40;;;17.50;99.90;;;;;;5111637;28;20231;-64
2023/05/16 11:35:37;;;;;;;14.48;10.55;;;17.70;99.90;;;;;;5111448;28;20211;-64
2023/05/16 11:38:04;;;;;;;11.27;9.73;;;17.50;99.90;;;;;;5111663;28;20203;-63
2023/05/16 11:40:31;;;;;;;13.38;9.82;;;17.20;99.90;;;;;;5114998;28;20231;-64
2023/05/16 11:43:02;;;;;;;11.77;9.55;;;17.00;99.90;;;;;;5115404;28;20219;-63
2023/05/16 11:45:28;;;;;;;11.18;9.38;;;16.70;99.90;;;;;;5115054;28;20214;-64
2023/05/16 11:48:02;;;;;;;11.00;8.70;;;16.40;99.90;;;;;;5114919;28;20302;-64
2023/05/16 11:50:30;;;;;;;9.70;8.50;;;16.00;99.90;;;;;;5115207;28;20252;-63
2023/05/16 11:52:58;;;;;;;9.80;7.43;;;15.50;99.90;;;;;;5114909;28;20228;-64
2023/05/16 11:55:28;;;;;;;9.03;7.60;;;15.30;99.90;;;;;;5114947;28;20204;-63
2023/05/16 11:57:56;;;;;;;9.07;7.33;;;15.00;99.90;;;;;;5115419;28;20199;-63
2023/05/16 12:00:25;;;;;;;8.57;6.43;;;15.00;99.90;;;;;;5114902;28;20226;-62
2023/05/16 12:02:53;;;;;;;7.83;5.83;;;14.90;99.90;;;;;;5114942;28;20297;-62
2023/05/16 12:05:24;;;;;;;7.93;6.20;;;14.70;99.90;;;;;;5114447;28;20207;-62
2023/05/16 12:07:52;;;;;;;6.93;5.70;;;14.40;99.90;;;;;;5115202;28;20216;-62
2023/05/16 12:10:20;;;;;;;6.97;6.27;;;14.30;99.90;;;;;;5114950;28;20200;-62
2023/05/16 12:12:50;;;;;;;7.77;5.93;;;14.30;99.90;;;;;;5114634;28;20224;-62
2023/05/16 12:15:17;;;;;;;7.80;6.17;;;14.40;99.90;;;;;;5114312;28;20211;-62
2023/05/16 12:17:45;;;;;;;7.07;5.57;;;14.50;99.90;;;;;;5114384;28;20368;-62
2023/05/16 12:20:13;;;;;;;8.60;5.53;;;14.70;99.90;;;;;;5114610;28;20204;-62
2023/05/16 12:22:40;;;;;;;6.93;4.83;;;14.90;99.90;;;;;;5114723;28;20224;-62
2023/05/16 12:25:26;;;;;;;5.00;4.47;;;15.20;99.90;;;;;;5114211;28;20722;-63
2023/05/16 12:27:54;;;;;;;7.63;5.97;;;15.50;99.90;;;;;;5114704;28;20214;-62
2023/05/16 12:30:23;;;;;;;6.67;5.20;;;15.50;99.90;;;;;;5114500;28;20291;-63
2023/05/16 12:32:53;;;;;;;5.67;5.17;;;15.50;99.90;;;;;;5114471;28;20625;-62
2023/05/16 12:35:20;;;;;;;5.50;4.80;;;15.70;99.90;;;;;;5114435;28;20208;-62
2023/05/16 12:37:47;;;;;;;6.57;4.25;;;15.90;99.90;;;;;;5114633;28;20199;-63
2023/05/16 12:40:13;;;;;;;5.50;4.82;;;16.20;99.90;;;;;;5114142;28;20211;-62
2023/05/16 12:42:43;;;;;;;5.18;4.25;;;16.70;99.90;;;;;;5113809;28;20239;-63